Flight Track Log - Related Links

Times and Time Zones

All times are in EDT time to prevent confusion due to time zone crossing. See the UAL4849 flight status page for this flight to view local times or setup timezone preferences in your user account.

Time Position Orientation Groundspeed Altitude Reporting Facility
EDT Latitude Longitude Course Direction KTS MPH feet Rate Location/Type
Mon 02:05:54 PM 39.1833 -76.7000 322° Northwest 149 171 1,100  Level Potomac TRACON
Mon 02:06:54 PM 39.2167 -76.7333 322° Northwest 173 199 2,400 1,300 Climbing Potomac TRACON
Mon 02:07:54 PM 39.2667 -76.7833 322° Northwest 179 206 3,700 1,350 Climbing Potomac TRACON
Mon 02:08:54 PM 39.2833 -76.8333 293° West 169 194 5,100 1,350 Climbing Potomac TRACON
Mon 02:09:54 PM 39.2833 -76.9000 270° West 170 196 6,400 1,300 Climbing Potomac TRACON
Mon 02:10:54 PM 39.3000 -76.9500 293° West 164 189 7,700 1,140 Climbing Potomac TRACON
Mon 02:11:55 PM 39.3000 -77.0167 270° West 169 194 8,700 942 Climbing Potomac TRACON
Mon 02:12:55 PM 39.3167 -77.0667 293° West 182 209 9,600 850 Climbing Potomac TRACON
Mon 02:13:55 PM 39.3500 -77.1167 311° West 195 224 10,400 900 Climbing Potomac TRACON
Mon 02:14:55 PM 39.3833 -77.1833 303° West 193 222 11,400 850 Climbing Potomac TRACON
Mon 02:15:55 PM 39.4167 -77.2500 303° West 199 229 12,100 650 Climbing Potomac TRACON
Mon 02:16:55 PM 39.4500 -77.3000 311° West 210 242 12,700 642 Climbing Potomac TRACON
Mon 02:18:34 PM 39.4939 -77.4014 299° West 214 246 13,800 679 Climbing Washington Center
Mon 02:19:34 PM 39.5261 -77.4642 304° West 214 246 14,500 718 Climbing Washington Center
Mon 02:20:31 PM 39.5586 -77.5269 304° West 214 246 15,200 706 Climbing Washington Center
Mon 02:21:33 PM 39.5889 -77.5897 302° West 214 246 15,900 700 Climbing Washington Center
Mon 02:22:31 PM 39.6211 -77.6525 304° West 214 246 16,600 700 Climbing Washington Center
Mon 02:23:33 PM 39.6511 -77.7153 302° West 214 246 17,300 639 Climbing Washington Center
Mon 02:24:33 PM 39.6794 -77.7756 301° West 214 246 17,900 650 Climbing Washington Center
Mon 02:26:56 PM 39.7544 -77.9206 304° West 196 226 19,500 621 Climbing Cleveland Center
Mon 02:27:56 PM 39.7853 -77.9814 303° West 196 226 20,000 248 Climbing Cleveland Center
Mon 02:28:57 PM 39.8181 -78.0478 303° West 202 232 20,000  Level Cleveland Center
Mon 02:29:56 PM 39.8528 -78.1167 303° West 221 254 20,000  Level Cleveland Center
Mon 02:30:57 PM 39.9003 -78.1853 312° West 235 270 20,000  Level Cleveland Center
Mon 02:31:56 PM 39.9475 -78.2542 312° West 250 288 20,000  Level Cleveland Center
Mon 02:32:56 PM 39.9950 -78.3367 307° West 255 293 20,000  Level Cleveland Center
Mon 02:33:57 PM 40.0403 -78.4108 309° West 260 299 20,000  Level Cleveland Center
Mon 02:34:56 PM 40.0875 -78.4828 311° West 260 299 20,000  Level Cleveland Center
Mon 02:35:56 PM 40.1303 -78.5464 311° West 260 299 20,000  Level Cleveland Center
Mon 02:36:57 PM 40.1753 -78.6186 309° West 260 299 20,000  Level Cleveland Center
Mon 02:37:57 PM 40.2225 -78.6906 311° West 260 299 20,000  Level Cleveland Center
Mon 02:38:57 PM 40.2672 -78.7600 310° West 255 293 20,000  Level Cleveland Center
Mon 02:39:57 PM 40.3142 -78.8294 312° West 255 293 20,000  Level Cleveland Center
Mon 02:40:57 PM 40.3592 -78.9075 307° West 255 293 20,000  Level Cleveland Center
Mon 02:41:57 PM 40.4000 -78.9856 305° West 260 299 20,000  Level Cleveland Center
Mon 02:42:57 PM 40.4425 -79.0581 308° West 265 305 20,000  Level Cleveland Center
Mon 02:43:56 PM 40.4853 -79.1364 306° West 265 305 20,000  Level Cleveland Center
Mon 02:44:56 PM 40.5258 -79.2092 306° West 260 299 20,000  Level Cleveland Center
Mon 02:45:57 PM 40.5683 -79.2847 307° West 260 299 20,000  Level Cleveland Center
Mon 02:46:57 PM 40.6131 -79.3606 308° West 260 299 20,000  Level Cleveland Center
Mon 02:47:57 PM 40.6556 -79.4336 307° West 260 299 20,000  Level Cleveland Center
Mon 02:48:57 PM 40.6981 -79.5094 306° West 260 299 20,000  Level Cleveland Center
Mon 02:49:57 PM 40.7403 -79.5856 306° West 260 299 20,000  Level Cleveland Center
Mon 02:50:57 PM 40.7806 -79.6619 305° West 260 299 20,000  Level Cleveland Center
Mon 02:51:56 PM 40.8228 -79.7353 307° West 260 299 20,000  Level Cleveland Center
Mon 02:52:56 PM 40.8631 -79.8117 305° West 260 299 20,000 -200 Level Cleveland Center
Mon 02:53:56 PM 40.9072 -79.8881 307° West 260 299 19,600 -700 Descending Cleveland Center
Mon 02:54:56 PM 40.9514 -79.9700 306° West 265 305 18,600 -942 Descending Cleveland Center
Mon 02:55:57 PM 41.0000 -80.0550 307° West 275 316 17,700 -950 Descending Cleveland Center
Mon 02:56:56 PM 41.0439 -80.1428 304° West 286 329 16,700 -958 Descending Cleveland Center
Mon 02:57:56 PM 41.0944 -80.2306 307° West 286 329 15,800 -850 Descending Cleveland Center
Mon 02:58:56 PM 41.1406 -80.3158 306° West 286 329 15,000 -850 Descending Cleveland Center
Mon 02:59:56 PM 41.1844 -80.4039 304° West 286 329 14,100 -750 Descending Cleveland Center
Mon 03:00:56 PM 41.2325 -80.4892 307° West 286 329 13,500 -600 Descending Cleveland Center
Mon 03:01:56 PM 41.2761 -80.5747 304° West 278 320 12,900 -600 Descending Cleveland Center
Mon 03:02:56 PM 41.3219 -80.6578 306° West 283 326 12,300 -595 Descending Cleveland Center
Mon 03:03:57 PM 41.3617 -80.7547 299° West 278 320 11,700 -595 Descending Cleveland Center
Mon 03:04:57 PM 41.3947 -80.8433 296° West 273 314 11,100 -699 Descending Cleveland Center
Mon 03:05:40 PM 41.4156 -80.9072 294° West 271 312 10,500 -712 Descending Cleveland Center
Mon 03:05:56 PM 41.4300 -80.9375 302° West 273 314 10,400 -556 Descending Cleveland Center
Mon 03:06:34 PM 41.4506 -80.9903 297° West 277 319 10,000 -600 Descending Cleveland Center
Mon 03:06:56 PM 41.4631 -81.0236 297° West 273 314 9,800 -655 Descending Cleveland Center
Mon 03:07:29 PM 41.4794 -81.0736 294° West 266 306 9,400 -689 Descending Cleveland Center
Mon 03:07:57 PM 41.4961 -81.1128 300° West 273 314 9,100 -500 Descending Cleveland Center
Mon 03:08:29 PM 41.5144 -81.1572 299° West 249 287 8,900 -102 Descending Cleveland Center
Mon 03:08:56 PM 41.5228 -81.1961 286° West 257 296 9,000 -448 Climbing Cleveland Center
Mon 03:09:36 PM 41.5347 -81.2517 286° West 244 281 8,400 -885 Descending Cleveland Center
Mon 03:09:57 PM 41.5431 -81.2822 290° West 251 289 8,100 -984 Descending Cleveland Center
Mon 03:10:37 PM 41.5550 -81.3433 285° West 254 292 7,400 -1,017 Descending Cleveland Center
Mon 03:10:56 PM 41.5569 -81.3739 275° West 251 289 7,100 -1,100 Descending Cleveland Center
Mon 03:11:37 PM 41.5586 -81.4378 272° West 253 291 6,300 -1,100 Descending Cleveland Center
Mon 03:11:56 PM 41.5564 -81.4656 264° West 251 289 6,000 -358 Descending Cleveland Center
Mon 03:12:44 PM 41.5494 -81.5347 262° West 240 276 5,900 -706 Descending Cleveland Center
Mon 03:13:38 PM 41.5364 -81.6206 259° West 243 280 4,800 -1,250 Descending Cleveland Center
Mon 03:13:56 PM 41.5319 -81.6428 255° West 251 289 4,400 -1,279 Descending Cleveland Center
Mon 03:14:39 PM 41.5125 -81.6978 245° Southwest 222 255 3,500 -1,180 Descending Cleveland Center
Mon 03:14:57 PM 41.5000 -81.7142 224° Southwest 234 269 3,200 -982 Descending Cleveland Center
Mon 03:15:34 PM 41.4767 -81.7500 229° Southwest 187 215 2,600 -857 Descending Cleveland Center
Mon 03:16:28 PM 41.4492 -81.7964 232° Southwest 163 188 1,900 -744 Descending Cleveland Center
Mon 03:17:35 PM 41.4217 -81.8347 226° Southwest 124 143 1,100 -716 Descending Cleveland Center
Mon 03:19:00 PM 41.4000 -81.8500 255° West  Level FlightAware Approximate
Mon 03:26:00 PM 41.4094 -81.8547 255° West  Level Estimated

Login

Don't have an account? Register now (free) for customized features, flight alerts, and more!